首页
METAR-TAF:

METAR-TAF

机场 :

黑角, 刚果

纬度: 04-49S, 经度: 011-54E, 海拔: 17米

当前天气观测

该预报发布于1小时和37分钟前的13:00 UTC
风速10节,风向西转西南,在西南西转西北之间变化
温度 29°C
湿度 74%
气压 1010 hPa
能见度10公里或以上
散云层高于1500英尺

METAR: FCPP 231300Z 25010KT 220V290 9999 SCT015 29/24 Q1010 NOSIG

时间: 15:37 (14:37 UTC)

预报

该预报发布于3小时和37分钟前的11:00 UTC
预报有效从23日的 12点(UTC)到 24日的 12点(UTC)
风速5节,风向南转西南
能見度: 9000
散云层高于2000英尺

TAF: FCPP 231100Z 2312/2412 20005KT 9000 SCT020

超过4000个机场的气象观测和天气预报(METAR&TAF报告)。

可查询的气象台以黄色和红色小点在地图上表示。

将鼠标移到小点上方,可查看气象台名称。

然后点击查看天气观测和预报。

如需切换地图:点击带黑十字的绿色按钮放大地图;点击带横线的绿色按钮缩小地图;或者点击绿色箭头查看邻近地区的地图。


METAR-TAF: